createdAt,value
2022-12-23T00:00:26.327Z,100422.91
2022-12-23T00:02:53.071Z,100420.28
2022-12-23T00:05:19.832Z,100428.97
2022-12-23T00:07:46.503Z,100423.69
2022-12-23T00:10:13.169Z,100417.41
2022-12-23T00:12:58.361Z,100426.88
2022-12-23T00:15:24.851Z,100432.41
2022-12-23T00:17:51.517Z,100440.28
2022-12-23T00:20:18.268Z,100445.56
2022-12-23T00:23:03.276Z,100451.38
2022-12-23T00:25:42.052Z,100450.03
2022-12-23T00:28:16.622Z,100451.06
2022-12-23T00:30:59.285Z,100455.53
2022-12-23T00:33:28.620Z,100455.78
2022-12-23T00:35:55.577Z,100453.44
2022-12-23T00:38:40.603Z,100460.53
2022-12-23T00:41:30.309Z,100472.09
2022-12-23T00:43:57.221Z,100468.66
2022-12-23T00:46:23.896Z,100472.34
2022-12-23T00:49:09.103Z,100459.41
2022-12-23T00:51:35.727Z,100465.72
2022-12-23T00:54:02.725Z,100471.00
2022-12-23T00:56:29.273Z,100471.78
2022-12-23T00:58:55.875Z,100473.06
2022-12-23T01:01:41.138Z,100479.13
2022-12-23T01:04:40.971Z,100488.88
2022-12-23T01:07:07.663Z,100479.38
2022-12-23T01:09:34.870Z,100481.44
2022-12-23T01:12:01.545Z,100478.28
2022-12-23T01:14:28.513Z,100485.13
2022-12-23T01:16:55.061Z,100480.91
2022-12-23T01:19:21.712Z,100484.56
2022-12-23T01:21:48.202Z,100490.88
2022-12-23T01:24:14.717Z,100493.50
2022-12-23T01:26:41.224Z,100491.91
2022-12-23T01:29:07.703Z,100504.03
2022-12-23T01:31:34.730Z,100502.44
2022-12-23T01:34:01.280Z,100504.03
2022-12-23T01:36:27.730Z,100501.66
2022-12-23T01:38:56.101Z,100507.72
2022-12-23T01:41:47.282Z,100514.56
2022-12-23T01:44:47.978Z,100515.59
2022-12-23T01:47:27.513Z,100522.72
2022-12-23T01:50:05.833Z,100517.69
2022-12-23T01:52:38.458Z,100522.94
2022-12-23T01:55:05.524Z,100522.94
2022-12-23T01:57:32.505Z,100521.34
2022-12-23T02:00:17.544Z,100531.88
2022-12-23T02:03:02.786Z,100540.81
2022-12-23T02:05:29.575Z,100552.38
2022-12-23T02:08:15.188Z,100556.06
2022-12-23T02:11:15.377Z,100557.09
2022-12-23T02:14:21.867Z,100554.47
2022-12-23T02:16:58.911Z,100559.16
2022-12-23T02:19:43.143Z,100559.16
2022-12-23T02:22:39.343Z,100562.03
2022-12-23T02:25:05.809Z,100572.56
2022-12-23T02:27:43.528Z,100571.19
2022-12-23T02:30:25.082Z,100576.47
2022-12-23T02:33:01.937Z,100583.81
2022-12-23T02:35:34.103Z,100583.25
2022-12-23T02:38:13.036Z,100587.19
2022-12-23T02:40:53.653Z,100590.06
2022-12-23T02:44:10.291Z,100581.59
2022-12-23T02:46:43.923Z,100596.25
2022-12-23T02:49:20.460Z,100602.56
2022-12-23T02:51:52.646Z,100599.38
2022-12-23T02:54:30.806Z,100601.69
2022-12-23T02:57:00.478Z,100611.88
2022-12-23T02:59:31.580Z,100612.34
2022-12-23T03:01:59.247Z,100622.31
2022-12-23T03:04:25.908Z,100618.09
2022-12-23T03:06:56.176Z,100624.38
2022-12-23T03:09:44.972Z,100623.00
2022-12-23T03:12:27.518Z,100624.28
2022-12-23T03:15:24.618Z,100622.38
2022-12-23T03:18:03.365Z,100617.28
2022-12-23T03:20:58.644Z,100616.63
2022-12-23T03:23:32.282Z,100617.06
2022-12-23T03:26:16.961Z,100610.78
2022-12-23T03:29:01.623Z,100605.06
2022-12-23T03:31:31.562Z,100610.09
2022-12-23T03:34:06.505Z,100606.66
2022-12-23T03:36:38.504Z,100608.03
2022-12-23T03:39:10.573Z,100616.72
2022-12-23T03:41:42.345Z,100614.31
2022-12-23T03:44:27.272Z,100619.81
2022-12-23T03:47:04.615Z,100622.34
2022-12-23T03:49:37.976Z,100620.75
2022-12-23T03:52:13.491Z,100625.19
2022-12-23T03:54:53.497Z,100623.03
2022-12-23T03:57:25.929Z,100615.63
2022-12-23T03:59:53.386Z,100610.03
2022-12-23T04:02:19.948Z,100627.06
2022-12-23T04:05:05.123Z,100636.00
2022-12-23T04:07:38.321Z,100642.84
2022-12-23T04:10:06.117Z,100641.00
2022-12-23T04:12:32.888Z,100646.03
2022-12-23T04:14:59.608Z,100649.69
2022-12-23T04:17:26.207Z,100654.16
2022-12-23T04:19:53.413Z,100663.63
2022-12-23T04:22:20.005Z,100667.06
2022-12-23T04:24:46.543Z,100665.47
2022-12-23T04:27:15.002Z,100668.34
2022-12-23T04:29:42.203Z,100677.00
2022-12-23T04:32:09.018Z,100676.22
2022-12-23T04:34:36.215Z,100675.41
2022-12-23T04:37:02.735Z,100665.69
2022-12-23T04:39:29.267Z,100674.16
2022-12-23T04:41:55.961Z,100666.28
2022-12-23T04:44:22.438Z,100670.50
2022-12-23T04:46:48.961Z,100661.81
2022-12-23T04:49:15.461Z,100671.28
2022-12-23T04:51:41.965Z,100662.63
2022-12-23T04:54:08.539Z,100656.31
2022-12-23T04:56:35.011Z,100653.69
2022-12-23T04:59:02.397Z,100650.03
2022-12-23T05:01:29.705Z,100653.47
2022-12-23T05:03:56.432Z,100652.44
2022-12-23T05:06:23.021Z,100655.06
2022-12-23T05:08:49.575Z,100656.66
2022-12-23T05:11:16.063Z,100646.13
2022-12-23T05:13:42.608Z,100654.03
2022-12-23T05:16:09.205Z,100652.19
2022-12-23T05:18:35.755Z,100655.63
2022-12-23T05:21:02.283Z,100659.06
2022-12-23T05:23:28.813Z,100666.94
2022-12-23T05:25:55.357Z,100678.25
2022-12-23T05:28:22.868Z,100671.41
2022-12-23T05:30:49.542Z,100680.88
2022-12-23T05:33:16.099Z,100684.31
2022-12-23T05:35:42.655Z,100688.78
2022-12-23T05:38:09.217Z,100686.16
2022-12-23T05:40:35.737Z,100694.03
2022-12-23T05:43:02.463Z,100695.63
2022-12-23T05:45:29.186Z,100700.31
2022-12-23T05:47:55.739Z,100701.13
2022-12-23T05:50:22.320Z,100699.53
2022-12-23T05:52:48.801Z,100704.78
2022-12-23T05:55:15.361Z,100703.19
2022-12-23T05:57:41.928Z,100711.88
2022-12-23T06:00:09.590Z,100692.66
2022-12-23T06:02:36.316Z,100693.69
2022-12-23T06:05:03.104Z,100694.72
2022-12-23T06:07:29.556Z,100693.69
2022-12-23T06:09:56.069Z,100688.44
2022-12-23T06:12:22.697Z,100693.69
2022-12-23T06:14:49.210Z,100696.31
2022-12-23T06:17:15.711Z,100692.09
2022-12-23T06:19:42.203Z,100688.44
2022-12-23T06:22:08.658Z,100681.59
2022-12-23T06:24:35.115Z,100678.94
2022-12-23T06:27:01.670Z,100670.03
2022-12-23T06:29:28.205Z,100676.31
2022-12-23T06:31:55.094Z,100678.16
2022-12-23T06:34:21.669Z,100678.38
2022-12-23T06:36:48.429Z,100673.34
2022-12-23T06:39:14.998Z,100685.69
2022-12-23T06:41:41.515Z,100673.59
2022-12-23T06:44:08.009Z,100683.50
2022-12-23T06:46:34.545Z,100687.53
2022-12-23T06:49:01.052Z,100695.66
2022-12-23T06:51:27.585Z,100700.09
2022-12-23T06:53:54.147Z,100693.25
2022-12-23T06:56:20.698Z,100708.78
2022-12-23T06:58:47.306Z,100704.53
2022-12-23T07:01:13.801Z,100706.41
2022-12-23T07:03:40.425Z,100701.91
2022-12-23T07:06:07.206Z,100713.25
2022-12-23T07:08:33.665Z,100714.28
2022-12-23T07:11:01.590Z,100719.31
2022-12-23T07:13:28.368Z,100715.06
2022-12-23T07:15:55.363Z,100720.56
2022-12-23T07:18:23.578Z,100731.88
2022-12-23T07:20:50.903Z,100725.03
2022-12-23T07:23:17.714Z,100717.13
2022-12-23T07:25:44.831Z,100732.91
2022-12-23T07:28:11.501Z,100739.19
2022-12-23T07:30:37.936Z,100735.53
2022-12-23T07:33:04.405Z,100737.16
2022-12-23T07:35:31.105Z,100737.16
2022-12-23T07:37:57.750Z,100737.16
2022-12-23T07:40:25.342Z,100730.28
2022-12-23T07:42:57.078Z,100718.97
2022-12-23T07:45:24.442Z,100710.28
2022-12-23T07:47:55.824Z,100713.72
2022-12-23T07:50:23.251Z,100714.50
2022-12-23T07:52:49.768Z,100709.25
2022-12-23T07:55:16.406Z,100705.59
2022-12-23T07:57:42.841Z,100700.34
2022-12-23T08:00:11.597Z,100713.47
2022-12-23T08:02:38.452Z,100716.13
2022-12-23T08:05:06.024Z,100707.16
2022-12-23T08:07:32.736Z,100702.75
2022-12-23T08:09:59.361Z,100705.38
2022-12-23T08:12:25.978Z,100701.91
2022-12-23T08:14:52.940Z,100700.91
2022-12-23T08:17:23.197Z,100701.47
2022-12-23T08:19:50.187Z,100701.47
2022-12-23T08:22:17.017Z,100703.31
2022-12-23T08:24:43.520Z,100700.69
2022-12-23T08:27:10.949Z,100695.41
2022-12-23T08:29:39.973Z,100696.44
2022-12-23T08:32:07.361Z,100696.44
2022-12-23T08:34:34.238Z,100695.41
2022-12-23T08:37:00.985Z,100686.50
2022-12-23T08:39:27.504Z,100679.97
2022-12-23T08:41:54.562Z,100673.47
2022-12-23T08:44:21.320Z,100678.50
2022-12-23T08:46:48.013Z,100686.94
2022-12-23T08:49:14.872Z,100680.09
2022-12-23T08:51:41.433Z,100673.00
2022-12-23T08:54:08.033Z,100669.34
2022-12-23T08:56:39.007Z,100665.44
2022-12-23T08:59:05.616Z,100662.81
2022-12-23T09:01:34.009Z,100659.94
2022-12-23T09:04:05.337Z,100645.22
2022-12-23T09:06:35.461Z,100652.28
2022-12-23T09:09:02.081Z,100648.63
2022-12-23T09:11:29.979Z,100648.63
2022-12-23T09:13:59.450Z,100641.31
2022-12-23T09:16:26.482Z,100644.97
2022-12-23T09:18:53.391Z,100643.16
2022-12-23T09:21:22.795Z,100640.50
2022-12-23T09:23:49.744Z,100636.28
2022-12-23T09:26:28.233Z,100636.06
2022-12-23T09:28:55.913Z,100635.03
2022-12-23T09:31:23.926Z,100634.78
2022-12-23T09:33:53.169Z,100639.81
2022-12-23T09:36:20.940Z,100637.75
2022-12-23T09:38:47.468Z,100640.38
2022-12-23T09:41:51.286Z,100640.94
2022-12-23T09:44:24.168Z,100634.66
2022-12-23T09:46:58.744Z,100634.41
2022-12-23T09:49:25.335Z,100634.66
2022-12-23T09:51:55.843Z,100628.34
2022-12-23T09:54:25.171Z,100623.31
2022-12-23T09:57:17.402Z,100612.81
2022-12-23T10:00:02.105Z,100599.44
2022-12-23T10:02:39.125Z,100589.22
2022-12-23T10:05:24.019Z,100585.88
2022-12-23T10:07:58.110Z,100583.00
2022-12-23T10:10:44.515Z,100577.50
2022-12-23T10:13:42.248Z,100568.00
2022-12-23T10:16:16.268Z,100555.41
2022-12-23T10:18:53.527Z,100555.97
2022-12-23T10:21:23.180Z,100562.59
2022-12-23T10:23:53.840Z,100552.88
2022-12-23T10:26:34.606Z,100550.00
2022-12-23T10:29:18.731Z,100547.69
2022-12-23T10:31:58.976Z,100544.59
2022-12-23T10:35:30.259Z,100547.78
2022-12-23T10:38:23.963Z,100547.78
2022-12-23T10:40:54.168Z,100541.97
2022-12-23T10:43:31.982Z,100534.31
2022-12-23T10:46:26.007Z,100537.75
2022-12-23T10:48:58.319Z,100536.47
2022-12-23T10:51:45.119Z,100531.19
2022-12-23T10:54:21.417Z,100526.19
2022-12-23T10:56:48.104Z,100527.53
2022-12-23T10:59:20.822Z,100521.22
2022-12-23T11:01:55.845Z,100517.81
2022-12-23T11:04:34.790Z,100515.97
2022-12-23T11:07:34.331Z,100512.06
2022-12-23T11:09:59.941Z,100496.84
2022-12-23T11:12:42.572Z,100501.06
2022-12-23T11:15:35.177Z,100499.47
2022-12-23T11:18:17.864Z,100501.06
2022-12-23T11:21:00.917Z,100494.22
2022-12-23T11:23:30.142Z,100500.25
2022-12-23T11:26:09.171Z,100490.28
2022-12-23T11:28:39.627Z,100497.41
2022-12-23T11:31:11.835Z,100494.53
2022-12-23T11:33:39.906Z,100486.88
2022-12-23T11:36:12.497Z,100475.53
2022-12-23T11:38:50.120Z,100466.84
2022-12-23T11:41:26.826Z,100463.44
2022-12-23T11:44:05.418Z,100443.16
2022-12-23T11:46:34.825Z,100428.19
2022-12-23T11:49:21.606Z,100425.31
2022-12-23T11:52:04.860Z,100413.19
2022-12-23T11:54:33.009Z,100420.03
2022-12-23T11:57:02.973Z,100407.94
2022-12-23T11:59:50.276Z,100392.94
2022-12-23T12:02:19.924Z,100393.72
2022-12-23T12:04:57.713Z,100390.31
2022-12-23T12:07:25.715Z,100386.88
2022-12-23T12:09:56.228Z,100381.63
2022-12-23T12:12:23.390Z,100376.34
2022-12-23T12:14:56.551Z,100374.53
2022-12-23T12:17:48.460Z,100367.41
2022-12-23T12:20:37.020Z,100366.63
2022-12-23T12:23:28.612Z,100368.22
2022-12-23T12:26:28.473Z,100371.88
2022-12-23T12:29:06.825Z,100363.44
2022-12-23T12:31:52.463Z,100358.97
2022-12-23T12:34:38.300Z,100335.28
2022-12-23T12:37:27.363Z,100325.25
2022-12-23T12:40:01.310Z,100310.50
2022-12-23T12:42:32.757Z,100316.56
2022-12-23T12:45:13.234Z,100308.91
2022-12-23T12:48:18.135Z,100290.25
2022-12-23T12:51:11.490Z,100287.63
2022-12-23T12:53:52.799Z,100275.25
2022-12-23T12:56:58.716Z,100265.78
2022-12-23T12:59:29.590Z,100268.16
2022-12-23T13:02:08.330Z,100261.56
2022-12-23T13:05:03.199Z,100254.72
2022-12-23T13:07:34.660Z,100256.28
2022-12-23T13:10:32.634Z,100247.91
2022-12-23T13:13:05.108Z,100246.38
2022-12-23T13:15:47.900Z,100240.88
2022-12-23T13:18:43.396Z,100247.16
2022-12-23T13:21:18.734Z,100242.94
2022-12-23T13:23:58.024Z,100242.16
2022-12-23T13:27:11.311Z,100242.16
2022-12-23T13:29:58.197Z,100245.28
2022-12-23T13:32:56.172Z,100233.97
2022-12-23T13:35:44.459Z,100221.06
2022-12-23T13:38:48.627Z,100224.47
2022-12-23T13:41:34.239Z,100223.38
2022-12-23T13:44:05.349Z,100234.69
2022-12-23T13:46:59.423Z,100239.97
2022-12-23T13:49:42.172Z,100225.47
2022-12-23T13:52:53.192Z,100212.56
2022-12-23T13:55:56.413Z,100195.19
2022-12-23T13:58:26.838Z,100193.34
2022-12-23T14:01:22.060Z,100182.56
2022-12-23T14:03:50.769Z,100179.16
2022-12-23T14:06:23.451Z,100169.44
2022-12-23T14:08:51.775Z,100157.84
2022-12-23T14:11:26.573Z,100147.34
2022-12-23T14:14:05.479Z,100138.94
2022-12-23T14:17:02.340Z,100148.47
2022-12-23T14:19:45.765Z,100144.81
2022-12-23T14:22:18.013Z,100152.81
2022-12-23T14:25:02.664Z,100158.13
2022-12-23T14:27:46.311Z,100151.56
2022-12-23T14:30:32.601Z,100135.19
2022-12-23T14:33:01.764Z,100129.63
2022-12-23T14:35:34.368Z,100136.19
2022-12-23T14:38:08.176Z,100132.22
2022-12-23T14:40:37.828Z,100135.38
2022-12-23T14:43:22.972Z,100146.41
2022-12-23T14:46:11.247Z,100142.19
2022-12-23T14:48:44.337Z,100142.41
2022-12-23T14:51:10.874Z,100149.28
2022-12-23T14:53:59.827Z,100155.34
2022-12-23T14:56:48.291Z,100153.25
2022-12-23T14:59:49.268Z,100149.56
2022-12-23T15:02:31.058Z,100142.72
2022-12-23T15:04:59.027Z,100135.06
2022-12-23T15:07:33.720Z,100143.47
2022-12-23T15:10:03.603Z,100140.84
2022-12-23T15:12:36.002Z,100127.94
2022-12-23T15:15:16.525Z,100132.41
2022-12-23T15:17:43.191Z,100130.81
2022-12-23T15:20:24.150Z,100123.97
2022-12-23T15:22:52.216Z,100115.53
2022-12-23T15:25:20.827Z,100122.88
2022-12-23T15:27:49.007Z,100131.00
2022-12-23T15:30:17.428Z,100128.38
2022-12-23T15:32:47.254Z,100131.81
2022-12-23T15:35:23.312Z,100116.03
2022-12-23T15:37:51.070Z,100116.25
2022-12-23T15:40:25.287Z,100112.84
2022-12-23T15:42:51.786Z,100133.88
2022-12-23T15:45:30.381Z,100114.69
2022-12-23T15:47:57.039Z,100099.94
2022-12-23T15:50:23.844Z,100114.94
2022-12-23T15:52:50.867Z,100119.41
2022-12-23T15:55:25.030Z,100128.06
2022-12-23T15:57:52.563Z,100129.13
2022-12-23T16:00:24.762Z,100121.47
2022-12-23T16:03:03.135Z,100133.84
2022-12-23T16:05:36.759Z,100142.53
2022-12-23T16:08:23.058Z,100132.00
2022-12-23T16:11:11.747Z,100133.59
2022-12-23T16:13:44.750Z,100144.09
2022-12-23T16:16:18.801Z,100157.81
2022-12-23T16:18:47.843Z,100145.69
2022-12-23T16:21:15.163Z,100139.88
2022-12-23T16:23:52.961Z,100132.00
2022-12-23T16:26:20.616Z,100139.09
2022-12-23T16:28:50.436Z,100126.44
2022-12-23T16:31:19.415Z,100127.22
2022-12-23T16:33:51.961Z,100121.97
2022-12-23T16:36:25.883Z,100116.72
2022-12-23T16:38:59.061Z,100121.97
2022-12-23T16:41:26.004Z,100134.34
2022-12-23T16:43:53.174Z,100130.13
2022-12-23T16:46:22.097Z,100144.06
2022-12-23T16:49:00.684Z,100138.56
2022-12-23T16:51:30.332Z,100140.94
2022-12-23T16:53:57.704Z,100148.81
2022-12-23T16:56:28.715Z,100155.66
2022-12-23T16:58:55.284Z,100150.41
2022-12-23T17:01:26.896Z,100153.84
2022-12-23T17:03:54.142Z,100152.00
2022-12-23T17:06:21.391Z,100158.31
2022-12-23T17:08:48.625Z,100149.38
2022-12-23T17:11:40.414Z,100156.22
2022-12-23T17:14:13.586Z,100159.09
2022-12-23T17:16:42.272Z,100164.34
2022-12-23T17:19:09.029Z,100139.34
2022-12-23T17:21:37.697Z,100150.66
2022-12-23T17:24:12.541Z,100166.44
2022-12-23T17:26:39.072Z,100167.22
2022-12-23T17:29:06.276Z,100162.22
2022-12-23T17:31:34.379Z,100164.06
2022-12-23T17:34:02.006Z,100159.59
2022-12-23T17:36:28.909Z,100162.78
2022-12-23T17:38:55.471Z,100163.31
2022-12-23T17:41:31.095Z,100161.78
2022-12-23T17:43:58.037Z,100157.63
2022-12-23T17:46:25.790Z,100160.28
2022-12-23T17:48:52.571Z,100155.56
2022-12-23T17:51:22.689Z,100151.41
2022-12-23T17:53:56.907Z,100157.97
2022-12-23T17:56:25.085Z,100157.47
2022-12-23T17:58:51.898Z,100157.53
2022-12-23T18:01:28.395Z,100158.06
2022-12-23T18:03:56.296Z,100154.94
2022-12-23T18:06:24.365Z,100161.03
2022-12-23T18:08:51.029Z,100165.00
2022-12-23T18:11:41.228Z,100170.56
2022-12-23T18:14:16.201Z,100177.44
2022-12-23T18:16:42.775Z,100175.63
2022-12-23T18:19:16.442Z,100186.44
2022-12-23T18:21:43.004Z,100176.19
2022-12-23T18:24:10.123Z,100178.88
2022-12-23T18:26:36.875Z,100186.25
2022-12-23T18:29:03.465Z,100192.06
2022-12-23T18:31:30.083Z,100191.81
2022-12-23T18:33:57.039Z,100193.16
2022-12-23T18:36:25.239Z,100198.19
2022-12-23T18:38:52.595Z,100199.25
2022-12-23T18:41:20.484Z,100205.88
2022-12-23T18:43:47.147Z,100199.56
2022-12-23T18:46:13.766Z,100208.25
2022-12-23T18:48:40.343Z,100212.47
2022-12-23T18:51:06.886Z,100217.47
2022-12-23T18:53:33.499Z,100216.19
2022-12-23T18:56:00.130Z,100226.47
2022-12-23T18:58:26.793Z,100230.66
2022-12-23T19:00:53.345Z,100229.63
2022-12-23T19:03:24.028Z,100231.47
2022-12-23T19:05:52.414Z,100235.41
2022-12-23T19:08:25.821Z,100236.47
2022-12-23T19:10:53.715Z,100235.66
2022-12-23T19:13:20.347Z,100227.78
2022-12-23T19:15:46.886Z,100229.09
2022-12-23T19:18:18.819Z,100229.88
2022-12-23T19:20:48.555Z,100242.28
2022-12-23T19:23:16.078Z,100235.94
2022-12-23T19:25:49.242Z,100242.78
2022-12-23T19:28:21.647Z,100242.78
2022-12-23T19:30:48.610Z,100237.53
2022-12-23T19:33:15.297Z,100252.28
2022-12-23T19:35:42.741Z,100254.91
2022-12-23T19:38:09.531Z,100261.78
2022-12-23T19:40:36.495Z,100254.91
2022-12-23T19:43:03.104Z,100260.97
2022-12-23T19:45:29.608Z,100266.50
2022-12-23T19:47:56.478Z,100272.31
2022-12-23T19:50:23.104Z,100273.34
2022-12-23T19:52:50.806Z,100275.75
2022-12-23T19:55:17.408Z,100278.38
2022-12-23T19:57:44.179Z,100279.97
2022-12-23T20:00:11.240Z,100284.97
2022-12-23T20:02:38.055Z,100298.16
2022-12-23T20:05:05.134Z,100299.75
2022-12-23T20:07:31.685Z,100299.75
2022-12-23T20:09:58.184Z,100316.34
2022-12-23T20:12:26.469Z,100315.56
2022-12-23T20:14:52.962Z,100314.75
2022-12-23T20:17:19.558Z,100310.28
2022-12-23T20:19:46.591Z,100317.16
2022-12-23T20:22:13.290Z,100322.41
2022-12-23T20:24:39.807Z,100323.22
2022-12-23T20:27:11.376Z,100313.47
2022-12-23T20:29:38.573Z,100316.09
2022-12-23T20:32:05.504Z,100328.47
2022-12-23T20:34:38.777Z,100333.25
2022-12-23T20:37:06.385Z,100334.84
2022-12-23T20:39:33.014Z,100338.28
2022-12-23T20:41:59.544Z,100341.69
2022-12-23T20:44:35.560Z,100349.84
2022-12-23T20:47:02.781Z,100346.72
2022-12-23T20:49:29.517Z,100356.47
2022-12-23T20:51:56.114Z,100359.91
2022-12-23T20:54:27.955Z,100367.56
2022-12-23T20:56:58.910Z,100376.25
2022-12-23T20:59:25.453Z,100368.34
2022-12-23T21:01:52.198Z,100389.97
2022-12-23T21:04:18.955Z,100403.16
2022-12-23T21:06:45.672Z,100389.19
2022-12-23T21:09:13.988Z,100401.56
2022-12-23T21:11:43.274Z,100401.56
2022-12-23T21:14:10.629Z,100398.13
2022-12-23T21:16:38.286Z,100409.47
2022-12-23T21:19:06.815Z,100409.72
2022-12-23T21:21:33.481Z,100413.41
2022-12-23T21:24:04.559Z,100413.41
2022-12-23T21:26:33.249Z,100422.34
2022-12-23T21:29:01.757Z,100419.47
2022-12-23T21:31:31.264Z,100423.94
2022-12-23T21:33:58.722Z,100435.28
2022-12-23T21:36:28.558Z,100418.91
2022-12-23T21:38:55.142Z,100433.69
2022-12-23T21:41:25.274Z,100445.31
2022-12-23T21:43:52.160Z,100441.34
2022-12-23T21:46:21.098Z,100459.00
2022-12-23T21:48:48.462Z,100461.88
2022-12-23T21:51:17.574Z,100465.78
2022-12-23T21:53:46.974Z,100472.66
2022-12-23T21:56:15.741Z,100467.63
2022-12-23T21:58:43.126Z,100466.84
2022-12-23T22:01:18.322Z,100469.47
2022-12-23T22:03:47.041Z,100479.22
2022-12-23T22:06:18.010Z,100476.84
2022-12-23T22:08:44.893Z,100482.34
2022-12-23T22:11:17.412Z,100493.13
2022-12-23T22:13:45.475Z,100495.47
2022-12-23T22:16:17.800Z,100493.59
2022-12-23T22:18:44.733Z,100496.16
2022-12-23T22:21:16.445Z,100518.53
2022-12-23T22:23:43.176Z,100520.84
2022-12-23T22:26:14.739Z,100518.69
2022-12-23T22:28:44.437Z,100523.41
2022-12-23T22:31:18.481Z,100537.63
2022-12-23T22:33:45.619Z,100531.81
2022-12-23T22:36:13.832Z,100535.47
2022-12-23T22:38:40.736Z,100541.53
2022-12-23T22:41:07.791Z,100553.09
2022-12-23T22:43:34.420Z,100540.97
2022-12-23T22:46:02.000Z,100543.63
2022-12-23T22:48:30.255Z,100563.09
2022-12-23T22:51:10.638Z,100547.53
2022-12-23T22:53:37.172Z,100554.88
2022-12-23T22:56:04.423Z,100548.25
2022-12-23T22:58:32.419Z,100552.47
2022-12-23T23:00:59.992Z,100565.41
2022-12-23T23:03:26.695Z,100570.13
2022-12-23T23:06:01.772Z,100560.63
2022-12-23T23:08:30.392Z,100577.47
2022-12-23T23:10:59.475Z,100572.50
2022-12-23T23:13:29.557Z,100575.16
2022-12-23T23:15:56.183Z,100578.56
2022-12-23T23:18:23.640Z,100583.84
2022-12-23T23:20:50.552Z,100590.94
2022-12-23T23:23:17.761Z,100598.84
2022-12-23T23:25:44.719Z,100600.69
2022-12-23T23:28:11.888Z,100581.22
2022-12-23T23:30:39.452Z,100599.09
2022-12-23T23:33:10.765Z,100593.81
2022-12-23T23:35:37.228Z,100605.47
2022-12-23T23:38:04.060Z,100609.13
2022-12-23T23:40:30.728Z,100612.25
2022-12-23T23:42:57.221Z,100621.75
2022-12-23T23:45:23.683Z,100622.00
2022-12-23T23:47:50.380Z,100628.63
2022-12-23T23:50:16.868Z,100629.41
2022-12-23T23:52:43.358Z,100633.09
2022-12-23T23:55:10.045Z,100635.97
2022-12-23T23:57:36.558Z,100646.50
